sensor_id;sensor_type;location;lat;lon;timestamp;temperature;humidity
7232;DHT22;3657;49.630;11.018;2023-02-15T00:00:07;0.80;99.90
7232;DHT22;3657;49.630;11.018;2023-02-15T00:02:35;0.90;99.90
7232;DHT22;3657;49.630;11.018;2023-02-15T00:05:02;1.00;99.90
7232;DHT22;3657;49.630;11.018;2023-02-15T00:07:29;1.10;99.90
7232;DHT22;3657;49.630;11.018;2023-02-15T00:09:56;1.20;99.90
7232;DHT22;3657;49.630;11.018;2023-02-15T00:12:22;1.20;99.90
7232;DHT22;3657;49.630;11.018;2023-02-15T00:14:50;1.20;99.90
7232;DHT22;3657;49.630;11.018;2023-02-15T00:17:17;1.20;99.90
7232;DHT22;3657;49.630;11.018;2023-02-15T00:19:44;1.30;99.90
7232;DHT22;3657;49.630;11.018;2023-02-15T00:22:10;1.20;99.90
7232;DHT22;3657;49.630;11.018;2023-02-15T00:24:37;1.10;99.90
7232;DHT22;3657;49.630;11.018;2023-02-15T00:27:04;1.10;99.90
7232;DHT22;3657;49.630;11.018;2023-02-15T00:29:30;1.10;99.90
7232;DHT22;3657;49.630;11.018;2023-02-15T00:31:58;1.00;99.90
7232;DHT22;3657;49.630;11.018;2023-02-15T00:34:26;0.90;99.90
7232;DHT22;3657;49.630;11.018;2023-02-15T00:36:54;0.90;99.90
7232;DHT22;3657;49.630;11.018;2023-02-15T00:39:20;0.90;99.90
7232;DHT22;3657;49.630;11.018;2023-02-15T00:41:47;0.90;99.90
7232;DHT22;3657;49.630;11.018;2023-02-15T00:44:14;0.90;99.90
7232;DHT22;3657;49.630;11.018;2023-02-15T00:46:41;0.80;99.90
7232;DHT22;3657;49.630;11.018;2023-02-15T00:49:10;0.80;99.90
7232;DHT22;3657;49.630;11.018;2023-02-15T00:51:37;0.80;99.90
7232;DHT22;3657;49.630;11.018;2023-02-15T00:54:04;0.90;99.90
7232;DHT22;3657;49.630;11.018;2023-02-15T00:56:31;0.90;99.90
7232;DHT22;3657;49.630;11.018;2023-02-15T00:58:58;0.90;99.90
7232;DHT22;3657;49.630;11.018;2023-02-15T01:01:24;1.00;99.90
7232;DHT22;3657;49.630;11.018;2023-02-15T01:03:51;1.10;99.90
7232;DHT22;3657;49.630;11.018;2023-02-15T01:06:19;1.10;99.90
7232;DHT22;3657;49.630;11.018;2023-02-15T01:08:46;1.10;99.90
7232;DHT22;3657;49.630;11.018;2023-02-15T01:11:14;1.10;99.90
7232;DHT22;3657;49.630;11.018;2023-02-15T01:13:47;1.00;99.90
7232;DHT22;3657;49.630;11.018;2023-02-15T01:16:14;1.00;99.90
7232;DHT22;3657;49.630;11.018;2023-02-15T01:18:41;1.10;99.90
7232;DHT22;3657;49.630;11.018;2023-02-15T01:21:12;1.10;99.90
7232;DHT22;3657;49.630;11.018;2023-02-15T01:23:40;1.10;99.90
7232;DHT22;3657;49.630;11.018;2023-02-15T01:26:07;1.00;99.90
7232;DHT22;3657;49.630;11.018;2023-02-15T01:28:34;0.90;99.90
7232;DHT22;3657;49.630;11.018;2023-02-15T01:31:04;0.80;99.90
7232;DHT22;3657;49.630;11.018;2023-02-15T01:33:31;0.80;99.90
7232;DHT22;3657;49.630;11.018;2023-02-15T01:35:58;0.80;99.90
7232;DHT22;3657;49.630;11.018;2023-02-15T01:38:25;0.60;99.90
7232;DHT22;3657;49.630;11.018;2023-02-15T01:40:54;0.60;99.90
7232;DHT22;3657;49.630;11.018;2023-02-15T01:43:41;0.60;99.90
7232;DHT22;3657;49.630;11.018;2023-02-15T01:46:09;0.60;99.90
7232;DHT22;3657;49.630;11.018;2023-02-15T01:48:44;0.60;99.90
7232;DHT22;3657;49.630;11.018;2023-02-15T01:51:11;0.70;99.90
7232;DHT22;3657;49.630;11.018;2023-02-15T01:53:43;0.60;99.90
7232;DHT22;3657;49.630;11.018;2023-02-15T01:56:14;0.50;99.90
7232;DHT22;3657;49.630;11.018;2023-02-15T01:58:42;0.60;99.90
7232;DHT22;3657;49.630;11.018;2023-02-15T02:01:10;0.70;99.90
7232;DHT22;3657;49.630;11.018;2023-02-15T02:03:44;0.70;99.90
7232;DHT22;3657;49.630;11.018;2023-02-15T02:06:12;0.80;99.90
7232;DHT22;3657;49.630;11.018;2023-02-15T02:08:39;0.80;99.90
7232;DHT22;3657;49.630;11.018;2023-02-15T02:11:11;0.80;99.90
7232;DHT22;3657;49.630;11.018;2023-02-15T02:13:38;0.50;99.90
7232;DHT22;3657;49.630;11.018;2023-02-15T02:16:10;0.40;99.90
7232;DHT22;3657;49.630;11.018;2023-02-15T02:18:44;0.50;99.90
7232;DHT22;3657;49.630;11.018;2023-02-15T02:21:42;0.40;99.90
7232;DHT22;3657;49.630;11.018;2023-02-15T02:24:29;0.30;99.90
7232;DHT22;3657;49.630;11.018;2023-02-15T02:27:18;0.30;99.90
7232;DHT22;3657;49.630;11.018;2023-02-15T02:30:23;0.30;99.90
7232;DHT22;3657;49.630;11.018;2023-02-15T02:33:07;0.20;99.90
7232;DHT22;3657;49.630;11.018;2023-02-15T02:35:40;0.20;99.90
7232;DHT22;3657;49.630;11.018;2023-02-15T02:38:15;0.10;99.90
7232;DHT22;3657;49.630;11.018;2023-02-15T02:40:51;0.10;99.90
7232;DHT22;3657;49.630;11.018;2023-02-15T02:43:21;0.20;99.90
7232;DHT22;3657;49.630;11.018;2023-02-15T02:45:57;0.30;99.90
7232;DHT22;3657;49.630;11.018;2023-02-15T02:48:27;0.20;99.90
7232;DHT22;3657;49.630;11.018;2023-02-15T02:50:55;0.30;99.90
7232;DHT22;3657;49.630;11.018;2023-02-15T02:53:22;0.30;99.90
7232;DHT22;3657;49.630;11.018;2023-02-15T02:55:51;0.30;99.90
7232;DHT22;3657;49.630;11.018;2023-02-15T02:58:23;0.40;99.90
7232;DHT22;3657;49.630;11.018;2023-02-15T03:00:53;0.50;99.90
7232;DHT22;3657;49.630;11.018;2023-02-15T03:03:26;0.50;99.90
7232;DHT22;3657;49.630;11.018;2023-02-15T03:05:56;0.60;99.90
7232;DHT22;3657;49.630;11.018;2023-02-15T03:08:26;0.50;99.90
7232;DHT22;3657;49.630;11.018;2023-02-15T03:10:59;0.50;99.90
7232;DHT22;3657;49.630;11.018;2023-02-15T03:13:26;0.50;99.90
7232;DHT22;3657;49.630;11.018;2023-02-15T03:15:54;0.40;99.90
7232;DHT22;3657;49.630;11.018;2023-02-15T03:18:44;0.40;99.90
7232;DHT22;3657;49.630;11.018;2023-02-15T03:21:19;0.40;99.90
7232;DHT22;3657;49.630;11.018;2023-02-15T03:23:50;0.50;99.90
7232;DHT22;3657;49.630;11.018;2023-02-15T03:26:20;0.50;99.90
7232;DHT22;3657;49.630;11.018;2023-02-15T03:28:49;0.50;99.90
7232;DHT22;3657;49.630;11.018;2023-02-15T03:31:18;0.50;99.90
7232;DHT22;3657;49.630;11.018;2023-02-15T03:33:51;0.40;99.90
7232;DHT22;3657;49.630;11.018;2023-02-15T03:36:21;0.40;99.90
7232;DHT22;3657;49.630;11.018;2023-02-15T03:38:52;0.50;99.90
7232;DHT22;3657;49.630;11.018;2023-02-15T03:41:26;0.60;99.90
7232;DHT22;3657;49.630;11.018;2023-02-15T03:43:56;0.70;99.90
7232;DHT22;3657;49.630;11.018;2023-02-15T03:46:28;0.70;99.90
7232;DHT22;3657;49.630;11.018;2023-02-15T03:49:01;0.70;99.90
7232;DHT22;3657;49.630;11.018;2023-02-15T03:51:32;0.70;99.90
7232;DHT22;3657;49.630;11.018;2023-02-15T03:54:06;0.60;99.90
7232;DHT22;3657;49.630;11.018;2023-02-15T03:56:34;0.50;99.90
7232;DHT22;3657;49.630;11.018;2023-02-15T03:59:02;0.50;99.90
7232;DHT22;3657;49.630;11.018;2023-02-15T04:01:54;0.40;99.90
7232;DHT22;3657;49.630;11.018;2023-02-15T04:04:31;0.50;99.90
7232;DHT22;3657;49.630;11.018;2023-02-15T04:06:58;0.50;99.90
7232;DHT22;3657;49.630;11.018;2023-02-15T04:09:25;0.50;99.90
7232;DHT22;3657;49.630;11.018;2023-02-15T04:12:09;0.50;99.90
7232;DHT22;3657;49.630;11.018;2023-02-15T04:14:36;0.50;99.90
7232;DHT22;3657;49.630;11.018;2023-02-15T04:17:20;0.50;99.90
7232;DHT22;3657;49.630;11.018;2023-02-15T04:19:48;0.60;99.90
7232;DHT22;3657;49.630;11.018;2023-02-15T04:22:33;0.60;99.90
7232;DHT22;3657;49.630;11.018;2023-02-15T04:25:17;0.70;99.90
7232;DHT22;3657;49.630;11.018;2023-02-15T04:27:46;0.70;99.90
7232;DHT22;3657;49.630;11.018;2023-02-15T04:30:15;0.70;99.90
7232;DHT22;3657;49.630;11.018;2023-02-15T04:32:42;0.80;99.90
7232;DHT22;3657;49.630;11.018;2023-02-15T04:35:10;0.80;99.90
7232;DHT22;3657;49.630;11.018;2023-02-15T04:37:38;0.80;99.90
7232;DHT22;3657;49.630;11.018;2023-02-15T04:40:06;0.70;99.90
7232;DHT22;3657;49.630;11.018;2023-02-15T04:42:33;0.70;99.90
7232;DHT22;3657;49.630;11.018;2023-02-15T04:45:00;0.50;99.90
7232;DHT22;3657;49.630;11.018;2023-02-15T04:47:26;0.60;99.90
7232;DHT22;3657;49.630;11.018;2023-02-15T04:49:53;0.60;99.90
7232;DHT22;3657;49.630;11.018;2023-02-15T04:52:21;0.60;99.90
7232;DHT22;3657;49.630;11.018;2023-02-15T04:54:48;0.60;99.90
7232;DHT22;3657;49.630;11.018;2023-02-15T04:57:15;0.50;99.90
7232;DHT22;3657;49.630;11.018;2023-02-15T04:59:41;0.50;99.90
7232;DHT22;3657;49.630;11.018;2023-02-15T05:02:08;0.40;99.90
7232;DHT22;3657;49.630;11.018;2023-02-15T05:04:35;0.30;99.90
7232;DHT22;3657;49.630;11.018;2023-02-15T05:07:02;0.30;99.90
7232;DHT22;3657;49.630;11.018;2023-02-15T05:09:30;0.20;99.90
7232;DHT22;3657;49.630;11.018;2023-02-15T05:11:56;0.20;99.90
7232;DHT22;3657;49.630;11.018;2023-02-15T05:14:23;0.10;99.90
7232;DHT22;3657;49.630;11.018;2023-02-15T05:16:49;0.10;99.90
7232;DHT22;3657;49.630;11.018;2023-02-15T05:19:16;0.10;99.90
7232;DHT22;3657;49.630;11.018;2023-02-15T05:21:43;0.10;99.90
7232;DHT22;3657;49.630;11.018;2023-02-15T05:24:10;0.20;99.90
7232;DHT22;3657;49.630;11.018;2023-02-15T05:26:51;0.30;99.90
7232;DHT22;3657;49.630;11.018;2023-02-15T05:29:35;0.40;99.90
7232;DHT22;3657;49.630;11.018;2023-02-15T05:32:02;0.30;99.90
7232;DHT22;3657;49.630;11.018;2023-02-15T05:34:29;0.20;99.90
7232;DHT22;3657;49.630;11.018;2023-02-15T05:36:56;0.20;99.90
7232;DHT22;3657;49.630;11.018;2023-02-15T05:39:22;0.10;99.90
7232;DHT22;3657;49.630;11.018;2023-02-15T05:41:49;0.10;99.90
7232;DHT22;3657;49.630;11.018;2023-02-15T05:44:17;0.10;99.90
7232;DHT22;3657;49.630;11.018;2023-02-15T05:46:44;0.10;99.90
7232;DHT22;3657;49.630;11.018;2023-02-15T05:49:10;-0.10;99.90
7232;DHT22;3657;49.630;11.018;2023-02-15T05:51:37;-0.20;99.90
7232;DHT22;3657;49.630;11.018;2023-02-15T05:54:04;-0.30;99.90
7232;DHT22;3657;49.630;11.018;2023-02-15T05:56:30;-0.40;99.90
7232;DHT22;3657;49.630;11.018;2023-02-15T05:58:57;-0.40;99.90
7232;DHT22;3657;49.630;11.018;2023-02-15T06:01:25;-0.30;99.90
7232;DHT22;3657;49.630;11.018;2023-02-15T06:03:52;-0.20;99.90
7232;DHT22;3657;49.630;11.018;2023-02-15T06:06:19;-0.10;99.90
7232;DHT22;3657;49.630;11.018;2023-02-15T06:08:46;0.00;99.90
7232;DHT22;3657;49.630;11.018;2023-02-15T06:11:13;0.10;99.90
7232;DHT22;3657;49.630;11.018;2023-02-15T06:13:39;0.20;99.90
7232;DHT22;3657;49.630;11.018;2023-02-15T06:16:06;0.20;99.90
7232;DHT22;3657;49.630;11.018;2023-02-15T06:18:34;0.30;99.90
7232;DHT22;3657;49.630;11.018;2023-02-15T06:21:01;0.20;99.90
7232;DHT22;3657;49.630;11.018;2023-02-15T06:23:28;0.00;99.90
7232;DHT22;3657;49.630;11.018;2023-02-15T06:25:54;-0.20;99.90
7232;DHT22;3657;49.630;11.018;2023-02-15T06:28:21;-0.10;99.90
7232;DHT22;3657;49.630;11.018;2023-02-15T06:30:48;0.00;99.90
7232;DHT22;3657;49.630;11.018;2023-02-15T06:33:14;0.00;99.90
7232;DHT22;3657;49.630;11.018;2023-02-15T06:35:43;-0.10;99.90
7232;DHT22;3657;49.630;11.018;2023-02-15T06:38:09;-0.20;99.90
7232;DHT22;3657;49.630;11.018;2023-02-15T06:40:36;-0.20;99.90
7232;DHT22;3657;49.630;11.018;2023-02-15T06:43:03;-0.20;99.90
7232;DHT22;3657;49.630;11.018;2023-02-15T06:45:29;-0.20;99.90
7232;DHT22;3657;49.630;11.018;2023-02-15T06:47:56;-0.10;99.90
7232;DHT22;3657;49.630;11.018;2023-02-15T06:50:22;-0.10;99.90
7232;DHT22;3657;49.630;11.018;2023-02-15T06:52:55;-0.10;99.90
7232;DHT22;3657;49.630;11.018;2023-02-15T06:55:22;-0.20;99.90
7232;DHT22;3657;49.630;11.018;2023-02-15T06:57:48;-0.20;99.90
7232;DHT22;3657;49.630;11.018;2023-02-15T07:00:16;-0.10;99.90
7232;DHT22;3657;49.630;11.018;2023-02-15T07:02:43;0.00;99.90
7232;DHT22;3657;49.630;11.018;2023-02-15T07:05:09;0.10;99.90
7232;DHT22;3657;49.630;11.018;2023-02-15T07:07:36;0.20;99.90
7232;DHT22;3657;49.630;11.018;2023-02-15T07:10:05;0.20;99.90
7232;DHT22;3657;49.630;11.018;2023-02-15T07:12:32;0.10;99.90
7232;DHT22;3657;49.630;11.018;2023-02-15T07:15:08;-0.10;99.90
7232;DHT22;3657;49.630;11.018;2023-02-15T07:17:35;-0.20;99.90
7232;DHT22;3657;49.630;11.018;2023-02-15T07:20:03;-0.20;99.90
7232;DHT22;3657;49.630;11.018;2023-02-15T07:22:30;-0.30;99.90
7232;DHT22;3657;49.630;11.018;2023-02-15T07:24:56;-0.10;99.90
7232;DHT22;3657;49.630;11.018;2023-02-15T07:27:24;0.00;99.90
7232;DHT22;3657;49.630;11.018;2023-02-15T07:29:51;0.10;99.90
7232;DHT22;3657;49.630;11.018;2023-02-15T07:32:17;0.20;99.90
7232;DHT22;3657;49.630;11.018;2023-02-15T07:34:44;0.20;99.90
7232;DHT22;3657;49.630;11.018;2023-02-15T07:37:11;-0.10;99.90
7232;DHT22;3657;49.630;11.018;2023-02-15T07:39:37;-0.10;99.90
7232;DHT22;3657;49.630;11.018;2023-02-15T07:42:04;-0.10;99.90
7232;DHT22;3657;49.630;11.018;2023-02-15T07:44:32;-0.20;99.90
7232;DHT22;3657;49.630;11.018;2023-02-15T07:46:59;-0.40;99.90
7232;DHT22;3657;49.630;11.018;2023-02-15T07:49:25;-0.30;99.90
7232;DHT22;3657;49.630;11.018;2023-02-15T07:51:52;-0.40;99.90
7232;DHT22;3657;49.630;11.018;2023-02-15T07:54:19;-0.40;99.90
7232;DHT22;3657;49.630;11.018;2023-02-15T07:56:45;-0.40;99.90
7232;DHT22;3657;49.630;11.018;2023-02-15T07:59:12;-0.30;99.90
7232;DHT22;3657;49.630;11.018;2023-02-15T08:01:40;-0.30;99.90
7232;DHT22;3657;49.630;11.018;2023-02-15T08:04:08;-0.20;99.90
7232;DHT22;3657;49.630;11.018;2023-02-15T08:06:37;-0.30;99.90
7232;DHT22;3657;49.630;11.018;2023-02-15T08:09:05;-0.10;99.90
7232;DHT22;3657;49.630;11.018;2023-02-15T08:11:33;0.00;99.90
7232;DHT22;3657;49.630;11.018;2023-02-15T08:14:04;0.10;99.90
7232;DHT22;3657;49.630;11.018;2023-02-15T08:16:33;0.10;99.90
7232;DHT22;3657;49.630;11.018;2023-02-15T08:19:04;0.10;99.90
7232;DHT22;3657;49.630;11.018;2023-02-15T08:21:31;0.10;99.90
7232;DHT22;3657;49.630;11.018;2023-02-15T08:23:59;0.10;99.90
7232;DHT22;3657;49.630;11.018;2023-02-15T08:26:27;0.10;99.90
7232;DHT22;3657;49.630;11.018;2023-02-15T08:28:54;0.00;99.90
7232;DHT22;3657;49.630;11.018;2023-02-15T08:31:21;0.20;99.90
7232;DHT22;3657;49.630;11.018;2023-02-15T08:33:49;0.20;99.90
7232;DHT22;3657;49.630;11.018;2023-02-15T08:36:21;0.20;99.90
7232;DHT22;3657;49.630;11.018;2023-02-15T08:38:48;0.30;99.90
7232;DHT22;3657;49.630;11.018;2023-02-15T08:41:16;0.40;99.90
7232;DHT22;3657;49.630;11.018;2023-02-15T08:43:45;0.40;99.90
7232;DHT22;3657;49.630;11.018;2023-02-15T08:46:13;0.40;99.90
7232;DHT22;3657;49.630;11.018;2023-02-15T08:48:40;0.50;99.90
7232;DHT22;3657;49.630;11.018;2023-02-15T08:51:09;0.50;99.90
7232;DHT22;3657;49.630;11.018;2023-02-15T08:53:38;0.50;99.90
7232;DHT22;3657;49.630;11.018;2023-02-15T08:56:06;0.40;99.90
7232;DHT22;3657;49.630;11.018;2023-02-15T08:58:33;0.40;99.90
7232;DHT22;3657;49.630;11.018;2023-02-15T09:01:00;0.30;99.90
7232;DHT22;3657;49.630;11.018;2023-02-15T09:03:28;0.10;99.90
7232;DHT22;3657;49.630;11.018;2023-02-15T09:05:59;0.10;99.90
7232;DHT22;3657;49.630;11.018;2023-02-15T09:08:26;0.10;99.90
7232;DHT22;3657;49.630;11.018;2023-02-15T09:10:54;0.10;99.90
7232;DHT22;3657;49.630;11.018;2023-02-15T09:13:27;0.10;99.90
7232;DHT22;3657;49.630;11.018;2023-02-15T09:15:59;0.10;99.90
7232;DHT22;3657;49.630;11.018;2023-02-15T09:18:25;0.10;99.90
7232;DHT22;3657;49.630;11.018;2023-02-15T09:20:52;0.00;99.90
7232;DHT22;3657;49.630;11.018;2023-02-15T09:23:20;0.10;99.90
7232;DHT22;3657;49.630;11.018;2023-02-15T09:25:47;0.20;99.90
7232;DHT22;3657;49.630;11.018;2023-02-15T09:28:15;0.20;99.90
7232;DHT22;3657;49.630;11.018;2023-02-15T09:30:41;0.20;99.90
7232;DHT22;3657;49.630;11.018;2023-02-15T09:33:08;0.30;99.90
7232;DHT22;3657;49.630;11.018;2023-02-15T09:35:35;0.40;99.90
7232;DHT22;3657;49.630;11.018;2023-02-15T09:38:01;0.50;99.90
7232;DHT22;3657;49.630;11.018;2023-02-15T09:40:35;0.50;99.90
7232;DHT22;3657;49.630;11.018;2023-02-15T09:43:27;0.50;99.90
7232;DHT22;3657;49.630;11.018;2023-02-15T09:46:14;0.50;99.90
7232;DHT22;3657;49.630;11.018;2023-02-15T09:48:42;0.60;99.90
7232;DHT22;3657;49.630;11.018;2023-02-15T09:51:42;0.60;99.90
7232;DHT22;3657;49.630;11.018;2023-02-15T09:54:24;0.60;99.90
7232;DHT22;3657;49.630;11.018;2023-02-15T09:56:58;0.40;99.90
7232;DHT22;3657;49.630;11.018;2023-02-15T09:59:34;0.30;99.90
7232;DHT22;3657;49.630;11.018;2023-02-15T10:02:13;0.30;99.90
7232;DHT22;3657;49.630;11.018;2023-02-15T10:04:58;0.30;99.90
7232;DHT22;3657;49.630;11.018;2023-02-15T10:07:40;0.40;99.90
7232;DHT22;3657;49.630;11.018;2023-02-15T10:10:17;0.40;99.90
7232;DHT22;3657;49.630;11.018;2023-02-15T10:13:06;0.40;99.90
7232;DHT22;3657;49.630;11.018;2023-02-15T10:15:53;0.30;99.90
7232;DHT22;3657;49.630;11.018;2023-02-15T10:18:38;0.40;99.90
7232;DHT22;3657;49.630;11.018;2023-02-15T10:21:17;0.30;99.90
7232;DHT22;3657;49.630;11.018;2023-02-15T10:23:57;0.30;99.90
7232;DHT22;3657;49.630;11.018;2023-02-15T10:26:30;0.40;99.90
7232;DHT22;3657;49.630;11.018;2023-02-15T10:29:04;0.40;99.90
7232;DHT22;3657;49.630;11.018;2023-02-15T10:31:39;0.50;99.90
7232;DHT22;3657;49.630;11.018;2023-02-15T10:34:15;0.50;99.90
7232;DHT22;3657;49.630;11.018;2023-02-15T10:37:05;0.70;99.90
7232;DHT22;3657;49.630;11.018;2023-02-15T10:39:46;0.80;99.90
7232;DHT22;3657;49.630;11.018;2023-02-15T10:42:23;0.90;99.90
7232;DHT22;3657;49.630;11.018;2023-02-15T10:45:03;1.00;99.90
7232;DHT22;3657;49.630;11.018;2023-02-15T10:47:46;1.00;99.90
7232;DHT22;3657;49.630;11.018;2023-02-15T10:50:24;1.10;99.90
7232;DHT22;3657;49.630;11.018;2023-02-15T10:53:00;1.10;99.90
7232;DHT22;3657;49.630;11.018;2023-02-15T10:55:44;1.10;99.90
7232;DHT22;3657;49.630;11.018;2023-02-15T10:58:17;1.20;99.90
7232;DHT22;3657;49.630;11.018;2023-02-15T11:00:52;1.20;99.90
7232;DHT22;3657;49.630;11.018;2023-02-15T11:03:41;1.30;99.90
7232;DHT22;3657;49.630;11.018;2023-02-15T11:06:17;1.40;99.90
7232;DHT22;3657;49.630;11.018;2023-02-15T11:08:49;1.40;99.90
7232;DHT22;3657;49.630;11.018;2023-02-15T11:11:22;1.50;99.90
7232;DHT22;3657;49.630;11.018;2023-02-15T11:13:52;1.70;99.90
7232;DHT22;3657;49.630;11.018;2023-02-15T11:16:22;1.80;99.90
7232;DHT22;3657;49.630;11.018;2023-02-15T11:18:54;1.90;99.90
7232;DHT22;3657;49.630;11.018;2023-02-15T11:21:24;2.00;99.90
7232;DHT22;3657;49.630;11.018;2023-02-15T11:23:52;2.00;99.90
7232;DHT22;3657;49.630;11.018;2023-02-15T11:26:24;2.00;99.90
7232;DHT22;3657;49.630;11.018;2023-02-15T11:28:56;2.10;99.90
7232;DHT22;3657;49.630;11.018;2023-02-15T11:31:26;2.10;99.90
7232;DHT22;3657;49.630;11.018;2023-02-15T11:34:00;2.10;99.90
7232;DHT22;3657;49.630;11.018;2023-02-15T11:36:32;2.00;99.90
7232;DHT22;3657;49.630;11.018;2023-02-15T11:39:02;2.10;99.90
7232;DHT22;3657;49.630;11.018;2023-02-15T11:41:34;2.10;99.90
7232;DHT22;3657;49.630;11.018;2023-02-15T11:44:08;2.20;99.90
7232;DHT22;3657;49.630;11.018;2023-02-15T11:46:37;2.30;99.90
7232;DHT22;3657;49.630;11.018;2023-02-15T11:49:10;2.40;99.90
7232;DHT22;3657;49.630;11.018;2023-02-15T11:51:45;2.60;99.90
7232;DHT22;3657;49.630;11.018;2023-02-15T11:54:12;2.80;99.90
7232;DHT22;3657;49.630;11.018;2023-02-15T11:56:38;2.90;99.90
7232;DHT22;3657;49.630;11.018;2023-02-15T11:59:10;3.20;99.90
7232;DHT22;3657;49.630;11.018;2023-02-15T12:01:40;3.50;99.90
7232;DHT22;3657;49.630;11.018;2023-02-15T12:04:18;3.80;99.90
7232;DHT22;3657;49.630;11.018;2023-02-15T12:06:51;4.00;99.90
7232;DHT22;3657;49.630;11.018;2023-02-15T12:09:24;4.20;99.90
7232;DHT22;3657;49.630;11.018;2023-02-15T12:11:52;4.40;99.90
7232;DHT22;3657;49.630;11.018;2023-02-15T12:14:19;4.50;99.90
7232;DHT22;3657;49.630;11.018;2023-02-15T12:16:48;4.60;99.90
7232;DHT22;3657;49.630;11.018;2023-02-15T12:19:29;4.70;99.90
7232;DHT22;3657;49.630;11.018;2023-02-15T12:21:58;4.80;99.90
7232;DHT22;3657;49.630;11.018;2023-02-15T12:24:28;4.90;99.90
7232;DHT22;3657;49.630;11.018;2023-02-15T12:27:01;5.00;99.90
7232;DHT22;3657;49.630;11.018;2023-02-15T12:29:31;4.90;99.90
7232;DHT22;3657;49.630;11.018;2023-02-15T12:32:00;5.00;99.90
7232;DHT22;3657;49.630;11.018;2023-02-15T12:34:30;5.10;99.90
7232;DHT22;3657;49.630;11.018;2023-02-15T12:37:02;5.00;99.90
7232;DHT22;3657;49.630;11.018;2023-02-15T12:39:34;5.00;99.90
7232;DHT22;3657;49.630;11.018;2023-02-15T12:42:04;5.00;99.90
7232;DHT22;3657;49.630;11.018;2023-02-15T12:44:32;5.10;99.90
7232;DHT22;3657;49.630;11.018;2023-02-15T12:47:01;5.30;99.90
7232;DHT22;3657;49.630;11.018;2023-02-15T12:49:30;5.40;99.90
7232;DHT22;3657;49.630;11.018;2023-02-15T12:54:34;5.80;99.90
7232;DHT22;3657;49.630;11.018;2023-02-15T12:57:20;6.00;99.90
7232;DHT22;3657;49.630;11.018;2023-02-15T12:59:49;6.10;99.90
7232;DHT22;3657;49.630;11.018;2023-02-15T13:02:21;6.20;99.90
7232;DHT22;3657;49.630;11.018;2023-02-15T13:04:50;6.40;99.90
7232;DHT22;3657;49.630;11.018;2023-02-15T13:07:17;6.60;99.90
7232;DHT22;3657;49.630;11.018;2023-02-15T13:09:44;6.80;99.90
7232;DHT22;3657;49.630;11.018;2023-02-15T13:12:17;6.90;99.90
7232;DHT22;3657;49.630;11.018;2023-02-15T13:14:46;7.00;99.90
7232;DHT22;3657;49.630;11.018;2023-02-15T13:17:16;7.40;99.90
7232;DHT22;3657;49.630;11.018;2023-02-15T13:19:47;7.50;99.90
7232;DHT22;3657;49.630;11.018;2023-02-15T13:22:17;7.60;99.90
7232;DHT22;3657;49.630;11.018;2023-02-15T13:24:47;7.70;99.90
7232;DHT22;3657;49.630;11.018;2023-02-15T13:27:17;7.80;99.90
7232;DHT22;3657;49.630;11.018;2023-02-15T13:29:47;7.80;99.90
7232;DHT22;3657;49.630;11.018;2023-02-15T13:32:24;7.80;99.90
7232;DHT22;3657;49.630;11.018;2023-02-15T13:34:54;7.90;99.90
7232;DHT22;3657;49.630;11.018;2023-02-15T13:37:34;8.00;99.90
7232;DHT22;3657;49.630;11.018;2023-02-15T13:40:08;8.20;99.90
7232;DHT22;3657;49.630;11.018;2023-02-15T13:42:41;8.30;99.90
7232;DHT22;3657;49.630;11.018;2023-02-15T13:45:25;8.40;99.90
7232;DHT22;3657;49.630;11.018;2023-02-15T13:47:59;8.40;99.90
7232;DHT22;3657;49.630;11.018;2023-02-15T13:50:56;8.50;99.90
7232;DHT22;3657;49.630;11.018;2023-02-15T13:53:38;8.80;99.90
7232;DHT22;3657;49.630;11.018;2023-02-15T13:56:14;9.00;99.90
7232;DHT22;3657;49.630;11.018;2023-02-15T13:59:00;9.10;99.90
7232;DHT22;3657;49.630;11.018;2023-02-15T14:01:36;9.20;99.90
7232;DHT22;3657;49.630;11.018;2023-02-15T14:04:17;9.30;99.90
7232;DHT22;3657;49.630;11.018;2023-02-15T14:07:02;9.30;99.90
7232;DHT22;3657;49.630;11.018;2023-02-15T14:09:40;9.30;99.90
7232;DHT22;3657;49.630;11.018;2023-02-15T14:12:26;9.40;99.90
7232;DHT22;3657;49.630;11.018;2023-02-15T14:15:10;9.40;99.90
7232;DHT22;3657;49.630;11.018;2023-02-15T14:17:48;9.60;99.90
7232;DHT22;3657;49.630;11.018;2023-02-15T14:20:23;9.60;99.90
7232;DHT22;3657;49.630;11.018;2023-02-15T14:22:57;9.50;99.90
7232;DHT22;3657;49.630;11.018;2023-02-15T14:25:31;9.50;99.90
7232;DHT22;3657;49.630;11.018;2023-02-15T14:28:05;9.50;99.90
7232;DHT22;3657;49.630;11.018;2023-02-15T14:30:36;9.60;99.90
7232;DHT22;3657;49.630;11.018;2023-02-15T14:33:06;9.50;99.90
7232;DHT22;3657;49.630;11.018;2023-02-15T14:35:34;9.60;99.90
7232;DHT22;3657;49.630;11.018;2023-02-15T14:38:07;9.60;99.90
7232;DHT22;3657;49.630;11.018;2023-02-15T14:40:44;9.60;99.90
7232;DHT22;3657;49.630;11.018;2023-02-15T14:43:38;9.60;99.90
7232;DHT22;3657;49.630;11.018;2023-02-15T14:46:16;9.60;99.90
7232;DHT22;3657;49.630;11.018;2023-02-15T14:48:47;9.60;99.90
7232;DHT22;3657;49.630;11.018;2023-02-15T14:54:57;9.60;99.90
7232;DHT22;3657;49.630;11.018;2023-02-15T14:57:29;9.50;99.90
7232;DHT22;3657;49.630;11.018;2023-02-15T14:59:59;9.50;99.90
7232;DHT22;3657;49.630;11.018;2023-02-15T15:02:30;9.50;99.90
7232;DHT22;3657;49.630;11.018;2023-02-15T15:05:08;9.50;99.90
7232;DHT22;3657;49.630;11.018;2023-02-15T15:07:38;9.40;99.90
7232;DHT22;3657;49.630;11.018;2023-02-15T15:10:38;9.40;99.90
7232;DHT22;3657;49.630;11.018;2023-02-15T15:13:38;9.30;99.90
7232;DHT22;3657;49.630;11.018;2023-02-15T15:16:30;9.30;99.90
7232;DHT22;3657;49.630;11.018;2023-02-15T15:18:57;9.20;99.90
7232;DHT22;3657;49.630;11.018;2023-02-15T15:21:53;9.10;99.90
7232;DHT22;3657;49.630;11.018;2023-02-15T15:24:46;9.10;99.90
7232;DHT22;3657;49.630;11.018;2023-02-15T15:27:45;9.00;99.90
7232;DHT22;3657;49.630;11.018;2023-02-15T15:30:48;8.90;99.90
7232;DHT22;3657;49.630;11.018;2023-02-15T15:39:23;8.70;99.90
7232;DHT22;3657;49.630;11.018;2023-02-15T15:42:00;8.60;99.90
7232;DHT22;3657;49.630;11.018;2023-02-15T15:44:49;8.50;99.90
7232;DHT22;3657;49.630;11.018;2023-02-15T15:47:34;8.50;99.90
7232;DHT22;3657;49.630;11.018;2023-02-15T15:50:12;8.40;99.90
7232;DHT22;3657;49.630;11.018;2023-02-15T15:52:47;8.30;99.90
7232;DHT22;3657;49.630;11.018;2023-02-15T15:55:17;8.20;99.90
7232;DHT22;3657;49.630;11.018;2023-02-15T15:57:46;8.10;99.90
7232;DHT22;3657;49.630;11.018;2023-02-15T16:00:28;8.10;99.90
7232;DHT22;3657;49.630;11.018;2023-02-15T16:02:58;8.00;99.90
7232;DHT22;3657;49.630;11.018;2023-02-15T16:05:24;7.90;99.90
7232;DHT22;3657;49.630;11.018;2023-02-15T16:07:51;7.90;99.90
7232;DHT22;3657;49.630;11.018;2023-02-15T16:10:22;7.80;99.90
7232;DHT22;3657;49.630;11.018;2023-02-15T16:12:49;7.70;99.90
7232;DHT22;3657;49.630;11.018;2023-02-15T16:15:20;7.60;99.90
7232;DHT22;3657;49.630;11.018;2023-02-15T16:17:49;7.50;99.90
7232;DHT22;3657;49.630;11.018;2023-02-15T16:20:23;7.50;99.90
7232;DHT22;3657;49.630;11.018;2023-02-15T16:23:09;7.40;99.90
7232;DHT22;3657;49.630;11.018;2023-02-15T16:25:43;7.30;99.90
7232;DHT22;3657;49.630;11.018;2023-02-15T16:28:13;7.20;99.90
7232;DHT22;3657;49.630;11.018;2023-02-15T16:30:44;7.10;99.90
7232;DHT22;3657;49.630;11.018;2023-02-15T16:33:12;7.00;99.90
7232;DHT22;3657;49.630;11.018;2023-02-15T16:35:53;7.00;99.90
7232;DHT22;3657;49.630;11.018;2023-02-15T16:38:24;6.90;99.90
7232;DHT22;3657;49.630;11.018;2023-02-15T16:40:55;6.80;99.90